Shelter Island Heights, NY (11965)

7:54 PM EDT on July 23, 2016 (GMT -0400)
KNYSHELT2 | | Change Station

Elev 73 ft 41.07 °N, 72.36 °W | Updated 11 minutes ago

Clear
Clear
86.3 °F
Feels Like 87 °F
N
1.0
Wind Variable Wind from SSW

Today
High -- | Low -- °F
--% Chance of Precip.
Yesterday
High -- | Low -- °F
Precip. -- in
Pressure 29.78 in
Visibility 10.0 miles
Clouds Clear
Heat Index 87 °F
Dew Point 63 °F
Humidity 45%
Rainfall 0.00 in
Snow Depth Not available.
5:37 AM 8:14 PM
Waning Gibbous, 81% visible
METAR KHTO 232335Z AUTO 21005KT 10SM CLR 28/19 A2978 RMK AO2 T02830193
Pressure 29.78 in
Visibility 10.0 miles
Clouds Clear
Heat Index 87 °F
Dew Point 63 °F
Humidity 45%
Rainfall 0.00 in
Snow Depth Not available.
5:37 AM 8:14 PM
Waning Gibbous, 81% visible
METAR KHTO 232335Z AUTO 21005KT 10SM CLR 28/19 A2978 RMK AO2 T02830193

10-Day Weather Forecast

Almanac

Astronomy

Jul. 23, 2016 Rise Set
Actual Time
Civil Twilight
Nautical Twilight
Astronomical Twilight
Moon
Length of Visible Light
Length of Day
Tomorrow will be .
, % of the Moon is Illuminated

Today's Extremes

State Highs State Lows

Community

WunderPhotos

Upload Photos

1,926,975 photos uploaded!

WunderBlog® & News

Nearby

Air Quality

  Air Quality AQ Index Pollutant
Not available.

Snow Depth

Station Depth Elevation

Earthquake Activity

City Distance Mag. Time & Date
Minimum magnitude displayed is 2.5.

Coastal Water Temperatures

Place Temperature

Stations

Nearby Weather Stations

Station Location Temp. Windchill Dew Point Humidity Wind Precip. Elev Updated Type
                   

Watches & Warnings

There are currently no watches in effect.